Hovedside
METAR-TAF:

METAR-TAF

Lufthavner :

Riga internasjonale lufthavn

Riga, Latvia

breddegrad: 56-55N, lengdegrad: 023-58E, høyde over havet: 10 m

Gjeldene værobservasjon

Denne rapporten ble laget for 18 minutter siden, klokken 04:50 UTC
Vind 6 kt fra Sørøst
Temperatur 14°C
Luftfuktighet 36%
Trykk 1021 hPa
Sikt 10 km eller mer
ingen skyer under 1500 m og ingen bygeskyer

METAR: EVRA 250450Z 14006KT CAVOK 14/M01 Q1021 NOSIG

Tid: 08:08 (05:08 UTC)

Varsel

Denne rapporten ble laget for 3 timer og 0 minutter siden, klokken 02:08 UTC
Varsel gyldig fra 25. klokken 03 UTC til 26. klokken 03 UTC
Vind 7 kt fra Øst-sørøst
Sikt 10 km eller mer
ingen skyer under 1500 m og ingen bygeskyer
Midlertidig
fra 25. klokken 09 UTC til 25. klokken 15 UTC
Vind 15 kt fra Sørøst med vindkast opp mot 28 kt

TAF: EVRA 250208Z 2503/2603 12007KT CAVOK TEMPO 2509/2515 14015G28KT

Værobservasjoner og værvarsel for over 4000 flyplasser (METAR- og TAF-rapporter).

Tilgjengelige stasjoner er representert av de røde og gule prikkene på kartet.

Hold musepekeren over prikken for å se navnet på stasjonen.

Klikk så for å se værobservasjoner og -varsler.

For å forandre kartet kan du klikke på den grønne knappen med svart kryss for å zoome inn, på den grønne knappen med strek for å zoome ut, eller på de grønne pilene for å se tilstøtende kart.


METAR-TAF: